Chandy N — WDC3098 — position and weather

sailwx.info

Track history (hours):
 
Tides and Currents Weather Stations Pressure Air Temp Water Temp Dewpoint Dewpoint Depression Visibility Wind Speed Wind Dir Waves Ship Positions

Chandy N

Owner: Apex Towing Company a division of Apex Oil Company, St. Louis, MO. More information available from US FCC via Universal Licensing System and Coast Guard Vessel Documentation Center.

Last reported at 2018-May-18 11:42 UTC. Time now 2018-May-24 08:06 UTC.
Position N 30°31' W 091°15'.

MMSI: 367002580.

Date/timePositionNaut miles runAvg speedWind from/ knotsBaromVisibWave heightAir tempDewpointWater temp
2018-May-18 11:42N 30°31' W 091°15'0 0.0
2018-May-17 11:39N 30°31' W 091°15'0 0.0
2018-May-17 11:30N 30°31' W 091°15'0 0.0
2018-May-17 09:22N 30°31' W 091°15'  
2018-May-14 13:43N 30°31' W 091°15'0 0.0
2018-May-14 13:30N 30°31' W 091°15'0 0.0
2018-May-14 13:00N 30°31' W 091°15'  
2018-May-09 10:25N 29°48' W 092°07'2 4.3
2018-May-09 10:00N 29°47' W 092°08'2 3.7
2018-May-09 09:30N 29°47' W 092°11'2 3.4
2018-May-09 09:01N 29°47' W 092°12'1 1.1
2018-May-09 08:30N 29°47' W 092°13'1 2.3
2018-May-09 08:00N 29°48' W 092°14'1 1.2
2018-May-09 07:30N 29°48' W 092°15'0 0.0
2018-May-09 07:00N 29°48' W 092°15'0 0.2
2018-May-09 06:31N 29°48' W 092°15'0 0.0
2018-May-09 06:00N 29°48' W 092°15'0 0.0
2018-May-09 04:23N 29°48' W 092°15'0 0.4
2018-May-09 03:53N 29°48' W 092°15'1 1.5
2018-May-09 03:29N 29°48' W 092°16'0 0.8
2018-May-09 02:54N 29°49' W 092°16'0 0.0
2018-May-09 02:28N 29°49' W 092°16'0 0.4
2018-May-09 01:58N 29°49' W 092°16'1 2.1
2018-May-09 01:29N 29°49' W 092°17'35 3.1
2018-May-08 14:20N 29°56' W 092°57'1 4.1
2018-May-08 14:00N 29°56' W 092°58'2 4.4
2018-May-08 13:26N 29°56' W 093°01'2 4.3
2018-May-08 12:54N 29°56' W 093°04'2 4.3
2018-May-08 12:30N 29°56' W 093°06'2 4.0
2018-May-08 12:01N 29°56' W 093°08'  
Track history (hours):
 
Tides and Currents Weather Stations Pressure Air Temp Water Temp Dewpoint Dewpoint Depression Visibility Wind Speed Wind Dir Waves Ship Positions

Chandy N

Owner: Apex Towing Company a division of Apex Oil Company, St. Louis, MO. More information available from US FCC via Universal Licensing System and Coast Guard Vessel Documentation Center.

Last reported at 2018-May-18 11:42 UTC. Time now 2018-May-24 08:06 UTC.
Position N 30°31' W 091°15'.

MMSI: 367002580.

Date/timePositionNaut miles runAvg speedWind from/ knotsBaromVisibWave heightAir tempDewpointWater temp
2018-May-18 11:42N 30°31' W 091°15'0 0.0
2018-May-17 11:39N 30°31' W 091°15'0 0.0
2018-May-17 11:30N 30°31' W 091°15'0 0.0
2018-May-17 09:22N 30°31' W 091°15'  
2018-May-14 13:43N 30°31' W 091°15'0 0.0
2018-May-14 13:30N 30°31' W 091°15'0 0.0
2018-May-14 13:00N 30°31' W 091°15'  
2018-May-09 10:25N 29°48' W 092°07'2 4.3
2018-May-09 10:00N 29°47' W 092°08'2 3.7
2018-May-09 09:30N 29°47' W 092°11'2 3.4
2018-May-09 09:01N 29°47' W 092°12'1 1.1
2018-May-09 08:30N 29°47' W 092°13'1 2.3
2018-May-09 08:00N 29°48' W 092°14'1 1.2
2018-May-09 07:30N 29°48' W 092°15'0 0.0
2018-May-09 07:00N 29°48' W 092°15'0 0.2
2018-May-09 06:31N 29°48' W 092°15'0 0.0
2018-May-09 06:00N 29°48' W 092°15'0 0.0
2018-May-09 04:23N 29°48' W 092°15'0 0.4
2018-May-09 03:53N 29°48' W 092°15'1 1.5
2018-May-09 03:29N 29°48' W 092°16'0 0.8
2018-May-09 02:54N 29°49' W 092°16'0 0.0
2018-May-09 02:28N 29°49' W 092°16'0 0.4
2018-May-09 01:58N 29°49' W 092°16'1 2.1
2018-May-09 01:29N 29°49' W 092°17'35 3.1
2018-May-08 14:20N 29°56' W 092°57'1 4.1
2018-May-08 14:00N 29°56' W 092°58'2 4.4
2018-May-08 13:26N 29°56' W 093°01'2 4.3
2018-May-08 12:54N 29°56' W 093°04'2 4.3
2018-May-08 12:30N 29°56' W 093°06'2 4.0
2018-May-08 12:01N 29°56' W 093°08'  

Dump ship's entire track history